createdAt,value
2018-02-07T00:00:51.238Z,1010.64
2018-02-07T00:01:51.254Z,1010.63
2018-02-07T00:02:51.265Z,1010.67
2018-02-07T00:03:51.276Z,1010.66
2018-02-07T00:04:51.286Z,1010.63
2018-02-07T00:05:51.295Z,1010.62
2018-02-07T00:06:51.305Z,1010.66
2018-02-07T00:07:51.322Z,1010.63
2018-02-07T00:08:51.325Z,1010.61
2018-02-07T00:10:51.349Z,1010.65
2018-02-07T00:11:51.367Z,1010.6
2018-02-07T00:12:51.380Z,1010.62
2018-02-07T00:13:51.393Z,1010.6
2018-02-07T00:14:51.405Z,1010.61
2018-02-07T00:15:51.405Z,1010.6
2018-02-07T00:16:51.420Z,1010.6
2018-02-07T00:17:51.430Z,1010.6
2018-02-07T00:18:51.446Z,1010.62
2018-02-07T00:19:51.458Z,1010.65
2018-02-07T00:20:51.473Z,1010.69
2018-02-07T00:21:51.479Z,1010.64
2018-02-07T00:22:51.488Z,1010.67
2018-02-07T00:23:51.499Z,1010.66
2018-02-07T00:24:51.516Z,1010.67
2018-02-07T00:25:51.525Z,1010.76
2018-02-07T00:26:51.535Z,1010.74
2018-02-07T00:27:51.550Z,1010.69
2018-02-07T00:28:51.556Z,1010.71
2018-02-07T00:29:51.569Z,1010.76
2018-02-07T00:30:51.584Z,1010.73
2018-02-07T00:31:51.591Z,1010.69
2018-02-07T00:32:51.608Z,1010.66
2018-02-07T00:33:51.619Z,1010.64
2018-02-07T00:34:51.625Z,1010.69
2018-02-07T00:35:51.640Z,1010.67
2018-02-07T00:36:51.652Z,1010.65
2018-02-07T00:37:51.658Z,1010.6
2018-02-07T00:38:51.668Z,1010.61
2018-02-07T00:39:51.683Z,1010.58
2018-02-07T00:40:51.698Z,1010.58
2018-02-07T00:42:51.720Z,1010.6
2018-02-07T00:43:51.730Z,1010.59
2018-02-07T00:44:51.740Z,1010.57
2018-02-07T00:45:51.754Z,1010.58
2018-02-07T00:46:51.760Z,1010.57
2018-02-07T00:47:51.774Z,1010.58
2018-02-07T00:48:51.786Z,1010.57
2018-02-07T00:49:51.799Z,1010.54
2018-02-07T00:50:51.809Z,1010.52
2018-02-07T00:51:51.822Z,1010.5
2018-02-07T00:52:51.832Z,1010.53
2018-02-07T00:53:51.845Z,1010.5
2018-02-07T00:54:51.856Z,1010.5
2018-02-07T00:55:51.865Z,1010.5
2018-02-07T00:56:51.879Z,1010.47
2018-02-07T00:58:51.905Z,1010.56
2018-02-07T00:59:51.917Z,1010.53
2018-02-07T01:00:51.924Z,1010.48
2018-02-07T01:01:51.931Z,1010.47
2018-02-07T01:02:51.944Z,1010.45
2018-02-07T01:03:51.956Z,1010.43
2018-02-07T01:04:51.970Z,1010.49
2018-02-07T01:05:51.984Z,1010.46
2018-02-07T01:06:51.994Z,1010.48
2018-02-07T01:07:52.002Z,1010.5
2018-02-07T01:08:52.026Z,1010.56
2018-02-07T01:09:52.025Z,1010.51
2018-02-07T01:10:52.037Z,1010.53
2018-02-07T01:11:52.052Z,1010.48
2018-02-07T01:12:52.055Z,1010.5
2018-02-07T01:14:52.085Z,1010.52
2018-02-07T01:15:52.095Z,1010.51
2018-02-07T01:16:52.105Z,1010.46
2018-02-07T01:17:52.115Z,1010.45
2018-02-07T01:18:52.122Z,1010.5
2018-02-07T01:19:52.144Z,1010.46
2018-02-07T01:20:52.150Z,1010.48
2018-02-07T01:21:52.162Z,1010.46
2018-02-07T01:22:52.172Z,1010.44
2018-02-07T01:23:52.187Z,1010.45
2018-02-07T01:24:52.197Z,1010.43
2018-02-07T01:25:52.206Z,1010.45
2018-02-07T01:26:52.217Z,1010.45
2018-02-07T01:27:52.230Z,1010.44
2018-02-07T01:28:52.240Z,1010.4
2018-02-07T01:30:52.258Z,1010.38
2018-02-07T01:31:52.273Z,1010.4
2018-02-07T01:32:52.280Z,1010.39
2018-02-07T01:33:52.298Z,1010.38
2018-02-07T01:34:52.310Z,1010.37
2018-02-07T01:35:52.321Z,1010.37
2018-02-07T01:36:52.332Z,1010.35
2018-02-07T01:37:52.344Z,1010.34
2018-02-07T01:38:52.351Z,1010.34
2018-02-07T01:39:52.363Z,1010.35
2018-02-07T01:40:52.377Z,1010.39
2018-02-07T01:41:52.394Z,1010.44
2018-02-07T01:42:52.404Z,1010.4
2018-02-07T01:43:52.411Z,1010.42
2018-02-07T01:45:52.440Z,1010.4
2018-02-07T01:46:52.451Z,1010.41
2018-02-07T01:47:52.453Z,1010.44
2018-02-07T01:48:52.467Z,1010.46
2018-02-07T01:49:52.486Z,1010.44
2018-02-07T01:50:52.493Z,1010.42
2018-02-07T01:51:52.502Z,1010.46
2018-02-07T01:52:52.516Z,1010.44
2018-02-07T01:53:52.528Z,1010.45
2018-02-07T01:54:52.538Z,1010.4
2018-02-07T01:55:52.553Z,1010.42
2018-02-07T01:56:52.556Z,1010.41
2018-02-07T01:57:52.572Z,1010.44
2018-02-07T01:58:52.583Z,1010.48
2018-02-07T01:59:52.597Z,1010.41
2018-02-07T02:00:52.611Z,1010.42
2018-02-07T02:01:52.615Z,1010.4
2018-02-07T02:02:52.628Z,1010.4
2018-02-07T02:03:52.644Z,1010.38
2018-02-07T02:04:52.647Z,1010.4
2018-02-07T02:05:52.658Z,1010.38
2018-02-07T02:06:52.672Z,1010.39
2018-02-07T02:07:52.684Z,1010.33
2018-02-07T02:08:52.698Z,1010.4
2018-02-07T02:09:52.709Z,1010.34
2018-02-07T02:10:52.723Z,1010.33
2018-02-07T02:11:52.734Z,1010.3
2018-02-07T02:12:52.736Z,1010.3
2018-02-07T02:13:52.753Z,1010.28
2018-02-07T02:14:52.769Z,1010.3
2018-02-07T02:15:52.776Z,1010.33
2018-02-07T02:17:52.793Z,1010.34
2018-02-07T02:18:52.813Z,1010.36
2018-02-07T02:19:52.821Z,1010.35
2018-02-07T02:20:52.831Z,1010.37
2018-02-07T02:21:52.843Z,1010.37
2018-02-07T02:22:52.858Z,1010.4
2018-02-07T02:23:52.864Z,1010.36
2018-02-07T02:24:52.873Z,1010.37
2018-02-07T02:25:52.886Z,1010.32
2018-02-07T02:26:52.899Z,1010.3
2018-02-07T02:27:52.916Z,1010.25
2018-02-07T02:28:52.922Z,1010.28
2018-02-07T02:29:52.941Z,1010.31
2018-02-07T02:30:52.947Z,1010.32
2018-02-07T02:31:52.958Z,1010.37
2018-02-07T02:33:52.983Z,1010.37
2018-02-07T02:34:52.994Z,1010.38
2018-02-07T02:35:53.004Z,1010.38
2018-02-07T02:36:53.017Z,1010.44
2018-02-07T02:37:53.025Z,1010.44
2018-02-07T02:38:53.034Z,1010.41
2018-02-07T02:39:53.048Z,1010.47
2018-02-07T02:40:53.057Z,1010.42
2018-02-07T02:41:53.071Z,1010.42
2018-02-07T02:42:53.083Z,1010.47
2018-02-07T02:43:53.193Z,1010.44
2018-02-07T02:44:53.105Z,1010.51
2018-02-07T02:45:53.117Z,1010.48
2018-02-07T02:46:53.128Z,1010.53
2018-02-07T02:47:53.138Z,1010.56
2018-02-07T02:49:53.160Z,1010.58
2018-02-07T02:50:53.168Z,1010.58
2018-02-07T02:51:53.189Z,1010.58
2018-02-07T02:52:53.197Z,1010.57
2018-02-07T02:53:53.206Z,1010.56
2018-02-07T02:54:53.219Z,1010.62
2018-02-07T02:55:53.232Z,1010.63
2018-02-07T02:56:53.239Z,1010.6
2018-02-07T02:57:53.249Z,1010.61
2018-02-07T02:58:53.264Z,1010.67
2018-02-07T02:59:53.278Z,1010.67
2018-02-07T03:00:53.290Z,1010.68
2018-02-07T03:01:53.302Z,1010.66
2018-02-07T03:02:53.311Z,1010.6
2018-02-07T03:03:53.322Z,1010.67
2018-02-07T03:05:53.342Z,1010.61
2018-02-07T03:06:53.359Z,1010.6
2018-02-07T03:07:53.363Z,1010.61
2018-02-07T03:08:53.382Z,1010.59
2018-02-07T03:09:53.388Z,1010.58
2018-02-07T03:10:53.397Z,1010.6
2018-02-07T03:11:53.411Z,1010.58
2018-02-07T03:12:53.428Z,1010.62
2018-02-07T03:13:53.439Z,1010.6
2018-02-07T03:14:53.446Z,1010.6
2018-02-07T03:15:53.457Z,1010.59
2018-02-07T03:16:53.476Z,1010.63
2018-02-07T03:17:53.481Z,1010.58
2018-02-07T03:18:53.494Z,1010.6
2018-02-07T03:20:53.513Z,1010.6
2018-02-07T03:21:53.527Z,1010.58
2018-02-07T03:22:53.536Z,1010.59
2018-02-07T03:23:53.656Z,1010.6
2018-02-07T03:24:53.563Z,1010.56
2018-02-07T03:25:53.577Z,1010.55
2018-02-07T03:26:53.593Z,1010.49
2018-02-07T03:27:53.598Z,1010.5
2018-02-07T03:28:53.612Z,1010.5
2018-02-07T03:29:53.626Z,1010.45
2018-02-07T03:30:53.626Z,1010.46
2018-02-07T03:31:53.644Z,1010.48
2018-02-07T03:32:53.652Z,1010.5
2018-02-07T03:33:53.668Z,1010.47
2018-02-07T03:34:53.672Z,1010.47
2018-02-07T03:35:53.688Z,1010.41
2018-02-07T03:36:53.698Z,1010.38
2018-02-07T03:37:53.708Z,1010.4
2018-02-07T03:38:53.722Z,1010.4
2018-02-07T03:39:53.738Z,1010.39
2018-02-07T03:40:53.748Z,1010.44
2018-02-07T03:41:53.759Z,1010.45
2018-02-07T03:42:53.767Z,1010.45
2018-02-07T03:43:53.781Z,1010.46
2018-02-07T03:44:53.791Z,1010.43
2018-02-07T03:45:53.803Z,1010.39
2018-02-07T03:46:53.810Z,1010.41
2018-02-07T03:47:53.829Z,1010.42
2018-02-07T03:48:53.835Z,1010.4
2018-02-07T03:49:53.850Z,1010.39
2018-02-07T03:50:53.857Z,1010.43
2018-02-07T03:52:53.882Z,1010.4
2018-02-07T03:53:53.895Z,1010.34
2018-02-07T03:54:53.902Z,1010.36
2018-02-07T03:55:53.918Z,1010.38
2018-02-07T03:56:53.926Z,1010.43
2018-02-07T03:57:53.936Z,1010.43
2018-02-07T03:58:53.947Z,1010.42
2018-02-07T03:59:53.964Z,1010.4
2018-02-07T04:00:53.972Z,1010.36
2018-02-07T04:01:53.985Z,1010.35
2018-02-07T04:02:53.993Z,1010.37
2018-02-07T04:03:54.003Z,1010.33
2018-02-07T04:04:54.019Z,1010.34
2018-02-07T04:05:54.028Z,1010.36
2018-02-07T04:06:54.038Z,1010.38
2018-02-07T04:08:54.065Z,1010.39
2018-02-07T04:09:54.076Z,1010.41
2018-02-07T04:10:54.088Z,1010.4
2018-02-07T04:11:54.097Z,1010.36
2018-02-07T04:12:54.109Z,1010.39
2018-02-07T04:13:54.120Z,1010.32
2018-02-07T04:14:54.131Z,1010.28
2018-02-07T04:15:54.144Z,1010.29
2018-02-07T04:16:54.153Z,1010.27
2018-02-07T04:17:54.166Z,1010.26
2018-02-07T04:18:54.176Z,1010.31
2018-02-07T04:19:54.191Z,1010.32
2018-02-07T04:20:54.196Z,1010.3
2018-02-07T04:21:54.208Z,1010.29
2018-02-07T04:22:54.218Z,1010.3
2018-02-07T04:24:54.239Z,1010.27
2018-02-07T04:25:54.258Z,1010.3
2018-02-07T04:26:54.266Z,1010.3
2018-02-07T04:27:54.277Z,1010.27
2018-02-07T04:28:54.299Z,1010.26
2018-02-07T04:29:54.301Z,1010.25
2018-02-07T04:30:54.310Z,1010.26
2018-02-07T04:31:54.323Z,1010.25
2018-02-07T04:32:54.338Z,1010.24
2018-02-07T04:33:54.345Z,1010.27
2018-02-07T04:34:54.357Z,1010.29
2018-02-07T04:35:54.373Z,1010.29
2018-02-07T04:36:54.377Z,1010.3
2018-02-07T04:37:54.393Z,1010.31
2018-02-07T04:38:54.403Z,1010.31
2018-02-07T04:40:54.427Z,1010.38
2018-02-07T04:41:54.437Z,1010.33
2018-02-07T04:42:54.445Z,1010.33
2018-02-07T04:43:54.463Z,1010.36
2018-02-07T04:44:54.472Z,1010.38
2018-02-07T04:45:54.483Z,1010.37
2018-02-07T04:46:54.496Z,1010.37
2018-02-07T04:47:54.503Z,1010.36
2018-02-07T04:48:54.515Z,1010.33
2018-02-07T04:49:54.526Z,1010.31
2018-02-07T04:50:54.538Z,1010.35
2018-02-07T04:51:54.547Z,1010.37
2018-02-07T04:52:54.566Z,1010.33
2018-02-07T04:53:54.580Z,1010.33
2018-02-07T04:55:54.601Z,1010.35
2018-02-07T04:56:54.611Z,1010.36
2018-02-07T04:57:54.620Z,1010.35
2018-02-07T04:58:54.630Z,1010.36
2018-02-07T04:59:54.652Z,1010.31
2018-02-07T05:00:54.654Z,1010.34
2018-02-07T05:01:54.671Z,1010.35
2018-02-07T05:02:54.683Z,1010.32
2018-02-07T05:03:54.687Z,1010.3
2018-02-07T05:04:54.700Z,1010.31
2018-02-07T05:05:54.712Z,1010.28
2018-02-07T05:06:54.726Z,1010.3
2018-02-07T05:07:54.741Z,1010.31
2018-02-07T05:08:54.750Z,1010.31
2018-02-07T05:09:54.758Z,1010.31
2018-02-07T05:10:54.768Z,1010.37
2018-02-07T05:11:54.784Z,1010.34
2018-02-07T05:12:54.799Z,1010.37
2018-02-07T05:13:54.801Z,1010.38
2018-02-07T05:14:54.812Z,1010.35
2018-02-07T05:15:54.830Z,1010.35
2018-02-07T05:16:54.840Z,1010.33
2018-02-07T05:17:54.848Z,1010.37
2018-02-07T05:18:54.868Z,1010.35
2018-02-07T05:19:54.877Z,1010.37
2018-02-07T05:20:54.887Z,1010.38
2018-02-07T05:21:54.897Z,1010.43
2018-02-07T05:22:54.902Z,1010.39
2018-02-07T05:23:54.917Z,1010.43
2018-02-07T05:24:54.931Z,1010.48
2018-02-07T05:25:54.943Z,1010.47
2018-02-07T05:27:54.966Z,1010.5
2018-02-07T05:28:54.981Z,1010.48
2018-02-07T05:29:54.991Z,1010.55
2018-02-07T05:30:55.004Z,1010.54
2018-02-07T05:31:55.014Z,1010.52
2018-02-07T05:32:55.022Z,1010.52
2018-02-07T05:33:55.033Z,1010.5
2018-02-07T05:34:55.048Z,1010.5
2018-02-07T05:35:55.054Z,1010.53
2018-02-07T05:36:55.073Z,1010.52
2018-02-07T05:37:55.083Z,1010.52
2018-02-07T05:38:55.089Z,1010.47
2018-02-07T05:39:55.104Z,1010.45
2018-02-07T05:40:55.115Z,1010.41
2018-02-07T05:41:55.130Z,1010.44
2018-02-07T05:43:55.147Z,1010.49
2018-02-07T05:44:55.157Z,1010.47
2018-02-07T05:45:55.166Z,1010.45
2018-02-07T05:46:55.178Z,1010.48
2018-02-07T05:47:55.193Z,1010.48
2018-02-07T05:48:55.206Z,1010.51
2018-02-07T05:49:55.222Z,1010.46
2018-02-07T05:50:55.233Z,1010.53
2018-02-07T05:51:55.235Z,1010.49
2018-02-07T05:52:55.249Z,1010.51
2018-02-07T05:53:55.263Z,1010.54
2018-02-07T05:54:55.279Z,1010.54
2018-02-07T05:55:55.282Z,1010.53
2018-02-07T05:56:55.294Z,1010.57
2018-02-07T05:57:55.308Z,1010.6
2018-02-07T05:59:55.332Z,1010.58
2018-02-07T06:00:55.345Z,1010.61
2018-02-07T06:01:55.357Z,1010.6
2018-02-07T06:02:55.366Z,1010.64
2018-02-07T06:03:55.376Z,1010.61
2018-02-07T06:04:55.388Z,1010.57
2018-02-07T06:05:55.401Z,1010.59
2018-02-07T06:06:55.414Z,1010.59
2018-02-07T06:07:55.428Z,1010.58
2018-02-07T06:08:55.432Z,1010.62
2018-02-07T06:09:55.442Z,1010.62
2018-02-07T06:10:55.456Z,1010.59
2018-02-07T06:11:55.468Z,1010.58
2018-02-07T06:12:55.480Z,1010.65
2018-02-07T06:13:55.494Z,1010.69
2018-02-07T06:15:55.515Z,1010.73
2018-02-07T06:16:55.526Z,1010.71
2018-02-07T06:17:55.539Z,1010.71
2018-02-07T06:18:55.546Z,1010.72
2018-02-07T06:19:55.561Z,1010.72
2018-02-07T06:20:55.573Z,1010.71
2018-02-07T06:21:55.582Z,1010.71
2018-02-07T06:22:55.598Z,1010.7
2018-02-07T06:23:55.602Z,1010.69
2018-02-07T06:24:55.615Z,1010.71
2018-02-07T06:25:55.633Z,1010.68
2018-02-07T06:26:55.642Z,1010.7
2018-02-07T06:27:55.649Z,1010.74
2018-02-07T06:28:55.665Z,1010.72
2018-02-07T06:30:55.689Z,1010.74
2018-02-07T06:31:55.700Z,1010.77
2018-02-07T06:32:55.709Z,1010.78
2018-02-07T06:33:55.722Z,1010.8
2018-02-07T06:34:55.734Z,1010.78
2018-02-07T06:35:55.745Z,1010.8
2018-02-07T06:36:55.762Z,1010.84
2018-02-07T06:37:55.764Z,1010.81
2018-02-07T06:38:55.784Z,1010.83
2018-02-07T06:39:55.794Z,1010.82
2018-02-07T06:40:55.804Z,1010.89
2018-02-07T06:41:55.812Z,1010.89
2018-02-07T06:42:55.823Z,1010.91
2018-02-07T06:43:55.836Z,1010.94
2018-02-07T06:44:55.845Z,1010.9
2018-02-07T06:45:55.860Z,1010.93
2018-02-07T06:46:55.874Z,1010.92
2018-02-07T06:47:55.885Z,1010.85
2018-02-07T06:48:55.897Z,1010.81
2018-02-07T06:49:55.908Z,1010.84
2018-02-07T06:50:55.920Z,1010.9
2018-02-07T06:51:55.925Z,1010.91
2018-02-07T06:52:55.938Z,1010.86
2018-02-07T06:53:55.951Z,1010.89
2018-02-07T06:54:55.962Z,1010.96
2018-02-07T06:55:55.981Z,1010.96
2018-02-07T06:56:55.993Z,1011.01
2018-02-07T06:57:55.998Z,1011.01
2018-02-07T06:58:56.014Z,1010.99
2018-02-07T06:59:56.026Z,1011.02
2018-02-07T07:00:56.039Z,1010.96
2018-02-07T07:02:56.058Z,1010.96
2018-02-07T07:03:56.073Z,1010.93
2018-02-07T07:04:56.076Z,1010.94
2018-02-07T07:05:56.087Z,1010.92
2018-02-07T07:06:56.100Z,1010.93
2018-02-07T07:07:56.114Z,1010.95
2018-02-07T07:08:56.125Z,1010.96
2018-02-07T07:09:56.137Z,1010.95
2018-02-07T07:10:56.149Z,1010.94
2018-02-07T07:11:56.161Z,1010.98
2018-02-07T07:12:56.174Z,1010.95
2018-02-07T07:13:56.180Z,1010.98
2018-02-07T07:14:56.194Z,1010.98
2018-02-07T07:15:56.206Z,1011
2018-02-07T07:16:56.215Z,1010.98
2018-02-07T07:18:56.242Z,1011
2018-02-07T07:19:56.253Z,1011.01
2018-02-07T07:20:56.265Z,1010.99
2018-02-07T07:21:56.283Z,1010.99
2018-02-07T07:22:56.286Z,1011.01
2018-02-07T07:23:56.301Z,1011.01
2018-02-07T07:24:56.313Z,1011.06
2018-02-07T07:25:56.325Z,1011.05
2018-02-07T07:26:56.335Z,1011.05
2018-02-07T07:27:56.349Z,1011.09
2018-02-07T07:28:56.363Z,1011.11
2018-02-07T07:29:56.368Z,1011.14
2018-02-07T07:30:56.383Z,1011.14
2018-02-07T07:31:56.397Z,1011.14
2018-02-07T07:32:56.411Z,1011.12
2018-02-07T07:34:56.424Z,1011.15
2018-02-07T07:35:56.444Z,1011.15
2018-02-07T07:36:56.452Z,1011.14
2018-02-07T07:37:56.465Z,1011.17
2018-02-07T07:38:56.472Z,1011.15
2018-02-07T07:39:56.485Z,1011.16
2018-02-07T07:40:56.505Z,1011.13
2018-02-07T07:41:56.511Z,1011.11
2018-02-07T07:42:56.523Z,1011.08
2018-02-07T07:43:56.535Z,1011.1
2018-02-07T07:44:56.544Z,1011.11
2018-02-07T07:45:56.555Z,1011.09
2018-02-07T07:46:56.573Z,1011.1
2018-02-07T07:47:56.577Z,1011.15
2018-02-07T07:48:56.591Z,1011.18
2018-02-07T07:50:56.617Z,1011.16
2018-02-07T07:51:56.628Z,1011.13
2018-02-07T07:52:56.659Z,1011.1
2018-02-07T07:53:56.654Z,1011.12
2018-02-07T07:54:56.665Z,1011.1
2018-02-07T07:55:56.678Z,1011.13
2018-02-07T07:56:56.695Z,1011.09
2018-02-07T07:57:56.704Z,1011.09
2018-02-07T07:58:56.715Z,1011.13
2018-02-07T07:59:56.722Z,1011.13
2018-02-07T08:00:56.734Z,1011.12
2018-02-07T08:01:56.749Z,1011.15
2018-02-07T08:02:56.766Z,1011.12
2018-02-07T08:03:56.772Z,1011.15
2018-02-07T08:05:56.798Z,1011.15
2018-02-07T08:06:56.810Z,1011.15
2018-02-07T08:07:56.821Z,1011.13
2018-02-07T08:08:56.837Z,1011.12
2018-02-07T08:09:56.849Z,1011.13
2018-02-07T08:10:56.906Z,1011.1
2018-02-07T08:11:56.866Z,1011.15
2018-02-07T08:12:56.880Z,1011.2
2018-02-07T08:13:56.893Z,1011.23
2018-02-07T08:14:56.905Z,1011.26
2018-02-07T08:15:56.915Z,1011.23
2018-02-07T08:16:56.932Z,1011.27
2018-02-07T08:17:56.949Z,1011.23
2018-02-07T08:18:56.972Z,1011.27
2018-02-07T08:19:56.968Z,1011.25
2018-02-07T08:20:56.979Z,1011.21
2018-02-07T08:21:56.994Z,1011.23
2018-02-07T08:22:57.004Z,1011.22
2018-02-07T08:23:57.017Z,1011.21
2018-02-07T08:24:57.025Z,1011.23
2018-02-07T08:25:57.038Z,1011.26
2018-02-07T08:26:57.053Z,1011.23
2018-02-07T08:27:57.059Z,1011.22
2018-02-07T08:28:57.081Z,1011.22
2018-02-07T08:29:57.093Z,1011.2
2018-02-07T08:30:57.097Z,1011.25
2018-02-07T08:31:57.110Z,1011.27
2018-02-07T08:32:57.125Z,1011.3
2018-02-07T08:33:57.134Z,1011.31
2018-02-07T08:34:57.158Z,1011.29
2018-02-07T08:35:57.164Z,1011.3
2018-02-07T08:37:57.185Z,1011.29
2018-02-07T08:38:57.192Z,1011.28
2018-02-07T08:39:57.206Z,1011.28
2018-02-07T08:40:57.218Z,1011.31
2018-02-07T08:41:57.233Z,1011.29
2018-02-07T08:42:57.275Z,1011.28
2018-02-07T08:43:57.263Z,1011.37
2018-02-07T08:44:57.271Z,1011.35
2018-02-07T08:45:57.277Z,1011.38
2018-02-07T08:46:57.297Z,1011.39
2018-02-07T08:47:57.307Z,1011.41
2018-02-07T08:48:57.319Z,1011.39
2018-02-07T08:49:57.330Z,1011.39
2018-02-07T08:50:57.337Z,1011.37
2018-02-07T08:51:57.356Z,1011.35
2018-02-07T08:53:57.382Z,1011.38
2018-02-07T08:54:57.390Z,1011.35
2018-02-07T08:55:57.401Z,1011.39
2018-02-07T08:56:57.421Z,1011.37
2018-02-07T08:57:57.432Z,1011.45
2018-02-07T08:58:57.443Z,1011.39
2018-02-07T08:59:57.448Z,1011.4
2018-02-07T09:00:57.467Z,1011.37
2018-02-07T09:01:57.478Z,1011.4
2018-02-07T09:02:57.482Z,1011.38
2018-02-07T09:03:57.501Z,1011.38
2018-02-07T09:04:57.514Z,1011.38
2018-02-07T09:05:57.526Z,1011.4
2018-02-07T09:06:57.536Z,1011.36
2018-02-07T09:07:57.543Z,1011.38
2018-02-07T09:09:57.576Z,1011.37
2018-02-07T09:10:57.585Z,1011.37
2018-02-07T09:11:57.591Z,1011.38
2018-02-07T09:12:57.605Z,1011.36
2018-02-07T09:13:57.619Z,1011.41
2018-02-07T09:14:57.631Z,1011.42
2018-02-07T09:15:57.650Z,1011.39
2018-02-07T09:16:57.759Z,1011.4
2018-02-07T09:17:57.670Z,1011.4
2018-02-07T09:18:57.680Z,1011.38
2018-02-07T09:19:57.690Z,1011.39
2018-02-07T09:20:57.701Z,1011.38
2018-02-07T09:21:57.722Z,1011.39
2018-02-07T09:22:57.731Z,1011.42
2018-02-07T09:23:57.740Z,1011.44
2018-02-07T09:25:57.766Z,1011.46
2018-02-07T09:26:57.780Z,1011.43
2018-02-07T09:27:57.793Z,1011.47
2018-02-07T09:28:57.801Z,1011.46
2018-02-07T09:29:57.812Z,1011.51
2018-02-07T09:30:57.826Z,1011.47
2018-02-07T09:31:57.837Z,1011.44
2018-02-07T09:32:57.853Z,1011.43
2018-02-07T09:33:57.864Z,1011.43
2018-02-07T09:34:57.872Z,1011.47
2018-02-07T09:35:57.889Z,1011.44
2018-02-07T09:36:57.904Z,1011.47
2018-02-07T09:37:57.909Z,1011.48
2018-02-07T09:38:57.923Z,1011.49
2018-02-07T09:40:57.947Z,1011.46
2018-02-07T09:41:57.961Z,1011.48
2018-02-07T09:42:57.976Z,1011.47
2018-02-07T09:43:57.987Z,1011.49
2018-02-07T09:44:57.997Z,1011.5
2018-02-07T09:45:58.008Z,1011.48
2018-02-07T09:46:58.017Z,1011.5
2018-02-07T09:47:58.040Z,1011.51
2018-02-07T09:48:58.048Z,1011.51
2018-02-07T09:49:58.056Z,1011.49
2018-02-07T09:50:58.066Z,1011.5
2018-02-07T09:51:58.084Z,1011.53
2018-02-07T09:52:58.099Z,1011.58
2018-02-07T09:53:58.111Z,1011.55
2018-02-07T09:54:58.121Z,1011.59
2018-02-07T09:55:58.135Z,1011.58
2018-02-07T09:56:58.143Z,1011.61
2018-02-07T09:57:58.152Z,1011.64
2018-02-07T09:58:58.170Z,1011.65
2018-02-07T09:59:58.186Z,1011.66
2018-02-07T10:00:58.191Z,1011.65
2018-02-07T10:01:58.203Z,1011.71
2018-02-07T10:02:58.219Z,1011.73
2018-02-07T10:03:58.228Z,1011.74
2018-02-07T10:04:58.244Z,1011.74
2018-02-07T10:05:58.256Z,1011.78
2018-02-07T10:06:58.363Z,1011.81
2018-02-07T10:07:58.277Z,1011.77
2018-02-07T10:08:58.290Z,1011.77
2018-02-07T10:09:58.302Z,1011.77
2018-02-07T10:10:58.320Z,1011.82
2018-02-07T10:12:58.339Z,1011.84
2018-02-07T10:13:58.354Z,1011.9
2018-02-07T10:14:58.365Z,1011.89
2018-02-07T10:15:58.373Z,1011.91
2018-02-07T10:16:58.389Z,1011.94
2018-02-07T10:17:58.405Z,1011.91
2018-02-07T10:18:58.413Z,1011.95
2018-02-07T10:19:58.426Z,1011.92
2018-02-07T10:20:58.442Z,1011.93
2018-02-07T10:21:58.448Z,1011.92
2018-02-07T10:22:58.459Z,1011.95
2018-02-07T10:23:58.482Z,1011.97
2018-02-07T10:24:58.485Z,1011.98
2018-02-07T10:25:58.503Z,1011.98
2018-02-07T10:26:58.515Z,1011.96
2018-02-07T10:28:58.541Z,1012.04
2018-02-07T10:29:58.551Z,1012.06
2018-02-07T10:30:58.569Z,1012.07
2018-02-07T10:31:58.576Z,1012.04
2018-02-07T10:32:58.586Z,1012.03
2018-02-07T10:33:58.602Z,1012.04
2018-02-07T10:34:58.628Z,1012.02
2018-02-07T10:35:58.633Z,1012.04
2018-02-07T10:36:58.644Z,1012.04
2018-02-07T10:37:58.653Z,1012
2018-02-07T10:38:58.665Z,1012.02
2018-02-07T10:39:58.676Z,1012
2018-02-07T10:40:58.687Z,1012.08
2018-02-07T10:41:58.709Z,1012.04
2018-02-07T10:42:58.719Z,1012.01
2018-02-07T10:44:58.745Z,1012.02
2018-02-07T10:45:58.757Z,1011.95
2018-02-07T10:46:58.764Z,1012.02
2018-02-07T10:47:58.783Z,1012.03
2018-02-07T10:48:58.790Z,1012.01
2018-02-07T10:49:58.814Z,1011.96
2018-02-07T10:50:58.827Z,1011.98
2018-02-07T10:51:58.839Z,1012.01
2018-02-07T10:52:58.843Z,1011.98
2018-02-07T10:53:58.856Z,1011.99
2018-02-07T10:54:58.881Z,1011.99
2018-02-07T10:55:58.881Z,1011.95
2018-02-07T10:56:58.900Z,1011.99
2018-02-07T10:57:58.918Z,1011.98
2018-02-07T10:58:58.924Z,1012
2018-02-07T11:00:58.952Z,1011.99
2018-02-07T11:01:58.965Z,1012.01
2018-02-07T11:02:58.973Z,1012.01
2018-02-07T11:03:58.989Z,1012.01
2018-02-07T11:04:59.000Z,1012.01
2018-02-07T11:05:59.014Z,1012.05
2018-02-07T11:06:59.033Z,1012.02
2018-02-07T11:07:59.044Z,1012
2018-02-07T11:08:59.053Z,1012.02
2018-02-07T11:09:59.065Z,1011.98
2018-02-07T11:10:59.077Z,1011.99
2018-02-07T11:11:59.090Z,1012
2018-02-07T11:12:59.108Z,1012
2018-02-07T11:13:59.123Z,1012.02
2018-02-07T11:15:59.148Z,1011.95
2018-02-07T11:16:59.155Z,1011.98
2018-02-07T11:17:59.174Z,1011.98
2018-02-07T11:18:59.186Z,1011.95
2018-02-07T11:19:59.197Z,1011.99
2018-02-07T11:20:59.207Z,1012.02
2018-02-07T11:21:59.226Z,1011.96
2018-02-07T11:22:59.243Z,1011.98
2018-02-07T11:23:59.250Z,1011.97
2018-02-07T11:24:59.266Z,1011.98
2018-02-07T11:25:59.275Z,1011.94
2018-02-07T11:26:59.294Z,1011.98
2018-02-07T11:27:59.305Z,1011.94
2018-02-07T11:28:59.323Z,1011.97
2018-02-07T11:29:59.337Z,1011.93
2018-02-07T11:30:59.346Z,1011.92
2018-02-07T11:31:59.363Z,1011.89
2018-02-07T11:32:59.369Z,1011.89
2018-02-07T11:33:59.385Z,1011.87
2018-02-07T11:34:59.401Z,1011.87
2018-02-07T11:35:59.463Z,1011.86
2018-02-07T11:36:59.429Z,1011.91
2018-02-07T11:37:59.439Z,1011.9
2018-02-07T11:38:59.451Z,1011.9
2018-02-07T11:39:59.465Z,1011.9
2018-02-07T11:40:59.480Z,1011.89
2018-02-07T11:41:59.492Z,1011.81
2018-02-07T11:42:59.506Z,1011.82
2018-02-07T11:43:59.518Z,1011.79
2018-02-07T11:44:59.531Z,1011.84
2018-02-07T11:45:59.543Z,1011.78
2018-02-07T11:47:59.573Z,1011.85
2018-02-07T11:48:59.584Z,1011.83
2018-02-07T11:49:59.602Z,1011.82
2018-02-07T11:50:59.614Z,1011.86
2018-02-07T11:51:59.625Z,1011.85
2018-02-07T11:52:59.687Z,1011.88
2018-02-07T11:53:59.654Z,1011.82
2018-02-07T11:54:59.668Z,1011.83
2018-02-07T11:55:59.683Z,1011.79
2018-02-07T11:56:59.692Z,1011.8
2018-02-07T11:57:59.708Z,1011.83
2018-02-07T11:58:59.775Z,1011.88
2018-02-07T11:59:59.733Z,1011.84
2018-02-07T12:00:59.748Z,1011.82
2018-02-07T12:01:59.759Z,1011.81
2018-02-07T12:03:59.787Z,1011.86
2018-02-07T12:04:59.801Z,1011.86
2018-02-07T12:05:59.816Z,1011.82
2018-02-07T12:06:59.829Z,1011.81
2018-02-07T12:07:59.844Z,1011.8
2018-02-07T12:08:59.855Z,1011.78
2018-02-07T12:09:59.866Z,1011.73
2018-02-07T12:10:59.887Z,1011.76
2018-02-07T12:11:59.904Z,1011.73
2018-02-07T12:12:59.914Z,1011.74
2018-02-07T12:13:59.926Z,1011.76
2018-02-07T12:14:59.942Z,1011.72
2018-02-07T12:15:59.955Z,1011.66
2018-02-07T12:16:59.962Z,1011.68
2018-02-07T12:17:59.979Z,1011.65
2018-02-07T12:20:00.009Z,1011.66
2018-02-07T12:21:00.019Z,1011.62
2018-02-07T12:22:00.088Z,1011.64
2018-02-07T12:23:00.051Z,1011.61
2018-02-07T12:24:00.061Z,1011.58
2018-02-07T12:25:00.078Z,1011.58
2018-02-07T12:26:00.089Z,1011.53
2018-02-07T12:27:00.105Z,1011.48
2018-02-07T12:28:00.116Z,1011.49
2018-02-07T12:29:00.131Z,1011.49
2018-02-07T12:30:00.150Z,1011.46
2018-02-07T12:31:00.159Z,1011.47
2018-02-07T12:32:00.166Z,1011.48
2018-02-07T12:33:00.186Z,1011.46
2018-02-07T12:34:00.201Z,1011.46
2018-02-07T12:36:00.223Z,1011.46
2018-02-07T12:37:00.235Z,1011.47
2018-02-07T12:38:00.254Z,1011.49
2018-02-07T12:39:00.264Z,1011.5
2018-02-07T12:40:00.285Z,1011.56
2018-02-07T12:41:00.296Z,1011.51
2018-02-07T12:42:00.311Z,1011.54
2018-02-07T12:43:00.318Z,1011.54
2018-02-07T12:44:00.331Z,1011.52
2018-02-07T12:45:00.347Z,1011.52
2018-02-07T12:46:00.363Z,1011.48
2018-02-07T12:47:00.376Z,1011.45
2018-02-07T12:48:00.392Z,1011.46
2018-02-07T12:49:00.405Z,1011.42
2018-02-07T12:51:00.434Z,1011.45